Time;durP1;ratioP1;P1;durP2;ratioP2;P2;SDS_P1;SDS_P2;PMS_P1;PMS_P2;Temp;Humidity;BMP_temperature;BMP_pressure;BME280_temperature;BME280_humidity;BME280_pressure;Samples;Min_cycle;Max_cycle;Signal;HPM_P1;HPM_P2
2022/06/28 00:01:44;;;;;;;19.33;3.83;;;26.10;99.90;;;;;;4927186;29;20389;-78
2022/06/28 00:04:11;;;;;;;14.73;4.32;;;26.00;99.90;;;;;;4926923;29;20036;-78
2022/06/28 00:06:37;;;;;;;11.52;4.40;;;25.90;99.90;;;;;;4927001;29;20473;-77
2022/06/28 00:09:04;;;;;;;12.95;4.40;;;25.80;99.90;;;;;;4948515;23;20066;-83
2022/06/28 00:11:29;;;;;;;13.45;4.28;;;25.70;99.90;;;;;;4957109;29;20039;-81
2022/06/28 00:13:56;;;;;;;15.65;4.45;;;25.70;99.90;;;;;;4953797;29;20035;-80
2022/06/28 00:16:22;;;;;;;11.88;4.40;;;25.70;99.90;;;;;;4950069;29;20038;-83
2022/06/28 00:18:49;;;;;;;11.65;4.32;;;25.60;99.90;;;;;;4946549;29;20036;-82
2022/06/28 00:21:15;;;;;;;16.77;4.70;;;25.60;99.90;;;;;;4943391;29;20087;-84
2022/06/28 00:23:42;;;;;;;11.15;4.47;;;25.50;99.90;;;;;;4942120;29;20070;-83
2022/06/28 00:26:09;;;;;;;8.25;3.97;;;25.50;99.90;;;;;;4940871;29;20027;-82
2022/06/28 00:28:36;;;;;;;11.02;4.28;;;25.40;99.90;;;;;;4941204;29;20090;-82
2022/06/28 00:31:03;;;;;;;14.48;4.57;;;25.30;99.90;;;;;;4941106;29;20024;-84
2022/06/28 00:33:29;;;;;;;12.70;4.50;;;25.20;99.90;;;;;;4941729;29;20043;-82
2022/06/28 00:35:55;;;;;;;20.88;4.63;;;25.10;99.90;;;;;;4943798;29;20020;-83
2022/06/28 00:38:21;;;;;;;8.38;3.97;;;25.10;99.90;;;;;;4944201;29;20400;-83
2022/06/28 00:40:50;;;;;;;6.47;4.13;;;24.90;99.90;;;;;;4944082;29;20103;-84
2022/06/28 00:43:17;;;;;;;11.27;3.92;;;24.80;99.90;;;;;;4944560;29;20096;-83
2022/06/28 00:45:44;;;;;;;23.00;4.60;;;24.70;99.90;;;;;;4941611;29;20095;-81
2022/06/28 00:48:13;;;;;;;15.93;4.10;;;24.60;99.90;;;;;;4944159;29;20027;-83
2022/06/28 00:50:40;;;;;;;10.55;3.80;;;24.60;99.90;;;;;;4942354;29;20032;-84
2022/06/28 00:53:10;;;;;;;11.23;4.20;;;24.50;99.90;;;;;;4942410;29;20495;-83
2022/06/28 00:55:36;;;;;;;15.05;4.55;;;24.40;99.90;;;;;;4944732;29;20039;-83
2022/06/28 00:58:03;;;;;;;6.72;3.75;;;24.30;99.90;;;;;;4944367;29;20048;-84
2022/06/28 01:00:31;;;;;;;11.00;3.90;;;24.20;99.90;;;;;;4943292;29;20035;-83
2022/06/28 01:02:58;;;;;;;17.52;4.32;;;24.10;99.90;;;;;;4927440;29;20027;-82
2022/06/28 01:05:24;;;;;;;9.40;3.75;;;24.00;99.90;;;;;;4945129;29;20496;-82
2022/06/28 01:07:50;;;;;;;6.30;3.25;;;24.00;99.90;;;;;;4945652;29;20027;-82
2022/06/28 01:10:16;;;;;;;6.32;3.83;;;23.90;99.90;;;;;;4944603;29;20550;-83
2022/06/28 01:12:42;;;;;;;7.53;3.58;;;23.70;99.90;;;;;;4943424;29;20039;-83
2022/06/28 01:15:08;;;;;;;5.78;3.55;;;23.70;99.90;;;;;;4942848;29;20119;-82
2022/06/28 01:17:54;;;;;;;5.30;3.22;;;23.60;99.90;;;;;;4942344;29;20551;-84
2022/06/28 01:20:36;;;;;;;8.88;3.00;;;23.50;99.90;;;;;;4943131;29;20040;-83
2022/06/28 01:23:20;;;;;;;5.45;3.10;;;23.50;99.90;;;;;;4943084;29;20030;-83
2022/06/28 01:25:49;;;;;;;5.45;3.05;;;23.50;99.90;;;;;;4944993;29;20039;-81
2022/06/28 01:28:20;;;;;;;4.90;3.05;;;23.60;99.90;;;;;;4932270;29;20111;-82
2022/06/28 01:30:50;;;;;;;5.65;3.15;;;23.60;99.90;;;;;;4947586;29;20011;-83
2022/06/28 01:33:23;;;;;;;5.72;3.05;;;23.50;99.90;;;;;;4957512;28;20031;-81
2022/06/28 01:35:50;;;;;;;7.75;3.08;;;23.50;99.90;;;;;;4956747;29;20063;-81
2022/06/28 01:38:19;;;;;;;9.45;3.15;;;23.60;99.90;;;;;;4955149;29;20039;-81
2022/06/28 01:40:46;;;;;;;11.88;3.80;;;23.50;99.90;;;;;;4955690;29;20054;-81
2022/06/28 01:43:14;;;;;;;7.97;3.38;;;23.40;99.90;;;;;;4955275;29;20034;-82
2022/06/28 01:45:45;;;;;;;10.15;3.47;;;23.30;99.90;;;;;;4953597;29;20024;-83
2022/06/28 01:48:13;;;;;;;5.80;3.60;;;23.10;99.90;;;;;;4948484;29;20039;-81
2022/06/28 01:51:05;;;;;;;9.27;3.75;;;23.00;99.90;;;;;;4947908;29;20027;-82
2022/06/28 01:53:32;;;;;;;6.30;3.95;;;22.80;99.90;;;;;;4953117;29;20040;-80
2022/06/28 01:56:04;;;;;;;6.88;4.00;;;22.70;99.90;;;;;;4938100;29;20018;-79
2022/06/28 01:58:50;;;;;;;8.48;3.85;;;22.70;99.90;;;;;;4955688;29;20452;-79
2022/06/28 02:01:16;;;;;;;7.45;4.00;;;22.70;99.90;;;;;;4956588;29;20019;-80
2022/06/28 02:03:45;;;;;;;6.40;3.85;;;22.80;99.90;;;;;;4957215;29;20492;-79
2022/06/28 02:06:31;;;;;;;5.32;3.58;;;22.80;99.90;;;;;;4952629;29;20059;-80
2022/06/28 02:09:02;;;;;;;5.00;3.60;;;22.80;99.90;;;;;;4955208;29;20050;-81
2022/06/28 02:11:38;;;;;;;6.00;3.13;;;22.80;99.90;;;;;;4956029;29;20028;-82
2022/06/28 02:14:05;;;;;;;6.63;3.03;;;22.80;99.90;;;;;;4954894;29;20060;-83
2022/06/28 02:16:31;;;;;;;5.13;3.47;;;22.80;99.90;;;;;;4949724;29;20027;-83
2022/06/28 02:18:58;;;;;;;7.57;3.38;;;22.80;99.90;;;;;;4946887;29;20059;-85
2022/06/28 02:21:24;;;;;;;3.75;3.25;;;22.70;99.90;;;;;;4944981;29;20147;-81
2022/06/28 02:23:49;;;;;;;4.90;3.45;;;22.70;99.90;;;;;;4946001;29;20072;-82
2022/06/28 02:26:15;;;;;;;5.05;3.08;;;22.60;99.90;;;;;;4945478;29;20027;-83
2022/06/28 02:28:41;;;;;;;6.70;3.58;;;22.50;99.90;;;;;;4948165;29;20047;-81
2022/06/28 02:31:13;;;;;;;6.60;3.30;;;22.50;99.90;;;;;;4949199;29;20023;-82
2022/06/28 02:33:41;;;;;;;6.57;2.88;;;22.60;99.90;;;;;;4948144;29;20027;-83
2022/06/28 02:41:37;;;;;;;7.63;3.50;;;22.40;99.90;;;;;;4946344;29;20032;-83
2022/06/28 02:44:03;;;;;;;3.63;2.97;;;22.40;99.90;;;;;;4944455;29;20028;-83
2022/06/28 02:46:30;;;;;;;3.72;3.10;;;22.50;99.90;;;;;;4947826;29;20058;-82
2022/06/28 02:48:55;;;;;;;4.47;2.78;;;22.40;99.90;;;;;;4948021;29;20084;-84
2022/06/28 02:51:22;;;;;;;5.68;2.75;;;22.30;99.90;;;;;;4947493;29;20039;-83
2022/06/28 02:53:48;;;;;;;4.13;2.67;;;22.30;99.90;;;;;;4933633;29;20119;-83
2022/06/28 02:56:14;;;;;;;5.25;3.15;;;22.20;99.90;;;;;;4951465;29;20027;-84
2022/06/28 02:58:40;;;;;;;5.18;3.05;;;22.20;99.90;;;;;;4944115;29;20031;-82
2022/06/28 03:01:06;;;;;;;4.28;3.10;;;22.20;99.90;;;;;;4940930;29;20035;-81
2022/06/28 03:03:33;;;;;;;7.40;3.80;;;22.20;99.90;;;;;;4940351;29;20063;-83
2022/06/28 03:05:58;;;;;;;8.23;3.83;;;22.20;99.90;;;;;;4942677;29;20020;-83
2022/06/28 03:08:24;;;;;;;6.10;3.55;;;22.20;99.90;;;;;;4945027;29;20028;-82
2022/06/28 03:10:52;;;;;;;6.55;3.50;;;22.20;99.90;;;;;;4946231;29;20514;-84
2022/06/28 03:13:18;;;;;;;5.50;3.53;;;22.20;99.90;;;;;;4945828;29;20035;-82
2022/06/28 03:15:43;;;;;;;5.38;2.95;;;22.30;99.90;;;;;;4944410;29;20032;-83
2022/06/28 03:18:09;;;;;;;4.50;2.78;;;22.40;99.90;;;;;;4944187;29;20051;-82
2022/06/28 03:20:35;;;;;;;9.02;2.97;;;22.50;99.90;;;;;;4942810;29;20027;-83
2022/06/28 03:23:02;;;;;;;5.43;3.05;;;22.60;99.90;;;;;;4945138;29;20031;-83
2022/06/28 03:25:29;;;;;;;6.53;3.25;;;22.60;99.90;;;;;;4947576;29;20039;-83
2022/06/28 03:27:55;;;;;;;4.13;3.40;;;22.60;99.90;;;;;;4932483;29;20019;-83
2022/06/28 03:30:21;;;;;;;4.22;2.78;;;22.50;99.90;;;;;;4954028;29;20034;-81
2022/06/28 03:32:48;;;;;;;5.88;3.42;;;22.40;99.90;;;;;;4952451;29;20056;-83
2022/06/28 03:35:22;;;;;;;5.50;3.10;;;22.30;99.90;;;;;;4952898;29;20028;-82
2022/06/28 03:37:48;;;;;;;5.13;2.97;;;22.30;99.90;;;;;;4941937;29;20020;-83
2022/06/28 03:40:15;;;;;;;6.70;2.70;;;22.20;99.90;;;;;;4926697;29;20035;-83
2022/06/28 03:42:46;;;;;;;3.65;2.90;;;22.10;99.90;;;;;;4926689;29;20036;-83
2022/06/28 03:45:12;;;;;;;4.78;3.25;;;22.10;99.90;;;;;;4927768;29;20103;-82
2022/06/28 03:47:40;;;;;;;7.05;3.45;;;22.00;99.90;;;;;;4935975;29;20052;-83
2022/06/28 03:50:38;;;;;;;5.68;2.55;;;22.00;99.90;;;;;;4939057;29;20039;-81
2022/06/28 03:53:23;;;;;;;;;;;22.00;99.90;;;;;;4945533;29;20038;-82
2022/06/28 03:56:18;;;;;;;6.47;2.97;;;22.00;99.90;;;;;;4937339;29;19918;-84
2022/06/28 03:58:44;;;;;;;4.07;2.67;;;22.10;99.90;;;;;;4951217;29;20016;-82
2022/06/28 04:01:10;;;;;;;5.28;3.00;;;22.10;99.90;;;;;;4951045;29;20027;-83
2022/06/28 04:03:36;;;;;;;2.50;2.30;;;22.10;99.90;;;;;;4957476;29;20023;-81
2022/06/28 04:06:03;;;;;;;6.95;2.28;;;22.20;99.90;;;;;;4956795;29;20035;-82
2022/06/28 04:08:29;;;;;;;4.18;2.58;;;22.20;99.90;;;;;;4956763;29;20027;-82
2022/06/28 04:11:15;;;;;;;3.25;2.00;;;22.30;99.90;;;;;;4939555;29;20024;-81
2022/06/28 04:13:51;;;;;;;6.68;2.70;;;22.30;99.90;;;;;;4958068;29;20063;-84
2022/06/28 04:16:19;;;;;;;3.67;2.20;;;22.30;99.90;;;;;;4959079;29;20042;-85
2022/06/28 04:18:45;;;;;;;3.60;2.55;;;22.30;99.90;;;;;;4960536;28;20019;-84
2022/06/28 04:21:34;;;;;;;3.80;2.58;;;22.20;99.90;;;;;;4961983;28;20055;-85
2022/06/28 04:24:09;;;;;;;;;;;22.20;99.90;;;;;;4961874;28;20047;-83
2022/06/28 04:26:40;;;;;;;3.65;2.53;;;22.20;99.90;;;;;;4961444;28;19922;-85
2022/06/28 04:29:11;;;;;;;7.28;5.43;;;22.20;99.90;;;;;;4961102;28;20055;-85
2022/06/28 04:31:38;;;;;;;3.60;2.75;;;22.10;99.90;;;;;;4961302;28;20020;-85
2022/06/28 04:34:04;;;;;;;3.40;2.00;;;22.10;99.90;;;;;;4945293;29;20031;-85
2022/06/28 04:36:35;;;;;;;3.83;2.03;;;22.10;99.90;;;;;;4960224;28;20031;-85
2022/06/28 04:39:01;;;;;;;3.03;2.17;;;22.20;99.90;;;;;;4961183;28;20095;-84
2022/06/28 04:41:34;;;;;;;2.92;2.08;;;22.20;99.90;;;;;;4955596;29;20028;-84
2022/06/28 04:44:15;;;;;;;5.88;2.00;;;22.20;99.90;;;;;;4949223;29;20140;-82
2022/06/28 04:46:46;;;;;;;3.33;2.25;;;22.20;99.90;;;;;;4946495;29;20031;-86
2022/06/28 04:49:17;;;;;;;3.25;1.90;;;22.10;99.90;;;;;;4946775;29;20028;-82
2022/06/28 04:51:45;;;;;;;2.90;1.63;;;22.10;99.90;;;;;;4944965;29;20095;-82
2022/06/28 04:54:19;;;;;;;4.68;1.95;;;22.10;99.90;;;;;;4944473;29;20038;-84
2022/06/28 04:57:08;;;;;;;6.68;1.75;;;22.00;99.90;;;;;;4937587;29;20036;-83
2022/06/28 04:59:33;;;;;;;2.30;1.65;;;22.10;99.90;;;;;;4947553;29;20123;-85
2022/06/28 05:02:03;;;;;;;5.03;2.13;;;22.00;99.90;;;;;;4948049;29;20023;-84
2022/06/28 05:04:29;;;;;;;7.05;4.68;;;22.00;99.90;;;;;;4948282;29;20032;-85
2022/06/28 05:07:07;;;;;;;7.03;1.92;;;22.00;99.90;;;;;;4931922;29;20532;-82
2022/06/28 05:09:33;;;;;;;6.13;2.10;;;22.00;99.90;;;;;;4931070;29;20055;-84
2022/06/28 05:11:59;;;;;;;8.10;2.38;;;22.00;99.90;;;;;;4946716;29;20023;-83
2022/06/28 05:14:29;;;;;;;4.45;2.10;;;22.00;99.90;;;;;;4944877;29;20031;-85
2022/06/28 05:16:56;;;;;;;5.53;2.22;;;22.00;99.90;;;;;;4941456;29;20047;-87
2022/06/28 05:19:26;;;;;;;3.90;2.50;;;22.00;99.90;;;;;;4942411;29;20056;-84
2022/06/28 05:21:52;;;;;;;5.25;2.20;;;22.00;99.90;;;;;;4929492;29;20125;-86
2022/06/28 05:24:18;;;;;;;5.25;2.13;;;22.10;99.90;;;;;;4938387;29;20016;-87
2022/06/28 05:26:51;;;;;;;6.90;2.10;;;22.10;99.90;;;;;;4925662;29;20036;-86
2022/06/28 05:29:19;;;;;;;3.72;2.47;;;22.20;99.90;;;;;;4941126;29;20088;-86
2022/06/28 05:31:46;;;;;;;2.15;1.90;;;22.20;99.90;;;;;;4940757;29;20028;-84
2022/06/28 05:34:13;;;;;;;3.47;2.38;;;22.30;99.90;;;;;;4940671;29;20048;-87
2022/06/28 05:36:40;;;;;;;4.00;1.85;;;22.40;99.90;;;;;;4941399;29;20027;-88
2022/06/28 05:39:08;;;;;;;2.22;1.98;;;22.50;99.90;;;;;;4940801;29;20052;-87
2022/06/28 05:41:34;;;;;;;3.55;1.90;;;22.60;99.90;;;;;;4940612;29;20024;-86
2022/06/28 05:44:00;;;;;;;3.47;2.10;;;22.70;99.90;;;;;;4940894;29;20043;-86
2022/06/28 05:46:27;;;;;;;4.28;1.90;;;22.90;99.90;;;;;;4940832;29;20017;-83
2022/06/28 05:48:53;;;;;;;7.28;2.10;;;23.00;99.90;;;;;;4938951;29;20143;-85
2022/06/28 05:51:22;;;;;;;5.70;1.80;;;23.00;99.90;;;;;;4933015;29;20032;-87
2022/06/28 05:53:48;;;;;;;4.30;2.00;;;23.20;99.90;;;;;;4948262;29;20087;-87
2022/06/28 05:56:14;;;;;;;3.78;2.03;;;23.30;99.90;;;;;;4940575;29;20028;-85
2022/06/28 05:58:40;;;;;;;3.05;1.98;;;23.50;99.90;;;;;;4932775;29;20382;-85
2022/06/28 06:01:06;;;;;;;6.00;1.75;;;23.60;99.90;;;;;;4929325;29;20075;-84
2022/06/28 06:03:33;;;;;;;9.13;1.90;;;23.60;99.90;;;;;;4941647;29;20099;-84
2022/06/28 06:05:59;;;;;;;4.45;1.75;;;23.50;99.90;;;;;;4936511;29;20086;-86
2022/06/28 06:08:25;;;;;;;5.53;1.95;;;23.50;99.90;;;;;;4936752;29;20036;-85
2022/06/28 06:10:51;;;;;;;2.30;1.92;;;23.70;99.90;;;;;;4942143;29;20158;-86
2022/06/28 06:13:18;;;;;;;2.90;1.60;;;23.60;99.90;;;;;;4972290;23;20091;-79
2022/06/28 06:15:43;;;;;;;4.25;1.77;;;23.80;99.90;;;;;;4944435;29;20054;-80
2022/06/28 06:18:10;;;;;;;4.75;2.00;;;23.90;99.90;;;;;;4942907;29;20024;-80
2022/06/28 06:20:35;;;;;;;9.02;2.05;;;24.00;99.90;;;;;;4943841;29;20431;-80
2022/06/28 06:23:01;;;;;;;3.17;1.88;;;24.10;99.90;;;;;;4939876;29;20042;-80
2022/06/28 06:25:42;;;;;;;6.35;2.55;;;24.30;99.90;;;;;;4927868;29;20435;-80
2022/06/28 06:28:08;;;;;;;7.03;1.70;;;24.40;99.90;;;;;;4928771;29;20032;-80
2022/06/28 06:30:36;;;;;;;3.70;1.90;;;24.30;99.90;;;;;;4928505;29;20028;-80
2022/06/28 06:33:14;;;;;;;5.18;1.88;;;24.30;99.90;;;;;;4931027;29;20046;-80
2022/06/28 06:36:03;;;;;;;3.65;2.10;;;24.40;99.90;;;;;;4928889;29;20504;-80
2022/06/28 06:38:30;;;;;;;3.15;1.77;;;24.40;99.90;;;;;;4928074;29;20043;-80
2022/06/28 06:40:58;;;;;;;3.80;2.03;;;24.30;99.90;;;;;;4929421;29;20123;-78
2022/06/28 06:43:26;;;;;;;10.55;1.98;;;24.30;99.90;;;;;;4927072;29;20296;-81
2022/06/28 06:46:03;;;;;;;5.40;2.22;;;24.20;99.90;;;;;;4926749;29;20137;-81
2022/06/28 06:48:29;;;;;;;4.85;2.08;;;24.30;99.90;;;;;;4939096;29;20373;-80
2022/06/28 06:50:55;;;;;;;7.90;1.98;;;24.40;99.90;;;;;;4937735;29;20027;-80
2022/06/28 06:53:21;;;;;;;4.65;1.70;;;24.60;99.90;;;;;;4937828;29;20672;-80
2022/06/28 06:55:47;;;;;;;5.25;1.80;;;24.60;99.90;;;;;;4937611;29;20088;-81
2022/06/28 06:58:15;;;;;;;8.30;2.20;;;24.70;99.90;;;;;;4939676;29;20463;-78
2022/06/28 07:00:41;;;;;;;4.55;1.73;;;24.80;99.90;;;;;;4944146;29;20027;-80
2022/06/28 07:03:07;;;;;;;3.03;2.08;;;24.80;99.90;;;;;;4944364;29;20031;-79
2022/06/28 07:05:36;;;;;;;5.88;2.03;;;24.80;99.90;;;;;;4926662;29;20051;-79
2022/06/28 07:08:02;;;;;;;4.78;2.83;;;24.90;99.90;;;;;;4942664;29;20043;-80
2022/06/28 07:10:33;;;;;;;4.30;1.80;;;25.00;99.90;;;;;;4941691;29;20028;-77
2022/06/28 07:13:01;;;;;;;6.22;2.03;;;25.00;99.90;;;;;;4942727;29;20040;-78
2022/06/28 07:15:26;;;;;;;4.10;1.98;;;25.00;99.90;;;;;;4945529;29;20062;-81
2022/06/28 07:17:52;;;;;;;7.25;1.95;;;25.10;99.90;;;;;;4951132;29;20024;-78
2022/06/28 07:20:18;;;;;;;12.80;3.22;;;25.10;99.90;;;;;;4951972;29;20031;-80
2022/06/28 07:22:44;;;;;;;3.80;2.08;;;25.20;99.90;;;;;;4944746;29;20099;-79
2022/06/28 07:25:16;;;;;;;4.93;2.17;;;25.20;99.90;;;;;;4944897;29;20444;-82
2022/06/28 07:27:42;;;;;;;7.18;2.70;;;25.30;99.90;;;;;;4941419;29;20036;-79
2022/06/28 07:30:10;;;;;;;6.45;2.10;;;25.40;99.90;;;;;;4934028;29;20617;-81
2022/06/28 07:32:36;;;;;;;7.32;2.33;;;25.40;99.90;;;;;;4943100;29;20032;-79
2022/06/28 07:35:02;;;;;;;10.05;3.22;;;25.40;99.90;;;;;;4931697;29;20027;-79
2022/06/28 07:37:29;;;;;;;6.35;2.40;;;25.50;99.90;;;;;;4922665;29;20044;-79
2022/06/28 07:39:55;;;;;;;3.13;2.03;;;25.50;99.90;;;;;;4936425;29;20043;-80
2022/06/28 07:42:50;;;;;;;6.55;2.40;;;25.50;99.90;;;;;;4936182;29;20032;-79
2022/06/28 07:45:44;;;;;;;4.60;2.40;;;25.60;99.90;;;;;;4931043;29;20116;-80
2022/06/28 07:48:12;;;;;;;4.43;2.20;;;25.60;99.90;;;;;;4934051;29;20475;-80
2022/06/28 07:53:25;;;;;;;9.70;2.45;;;25.60;99.90;;;;;;4954073;29;20048;-84
2022/06/28 07:56:06;;;;;;;4.75;2.42;;;25.70;99.90;;;;;;4948288;29;20046;-83
2022/06/28 07:58:34;;;;;;;3.92;2.00;;;25.80;99.90;;;;;;4948289;29;20500;-85
2022/06/28 08:01:05;;;;;;;4.05;1.90;;;25.90;99.90;;;;;;4935788;29;20138;-87
2022/06/28 08:03:31;;;;;;;4.30;2.20;;;25.80;99.90;;;;;;4949580;29;20036;-85
2022/06/28 08:05:56;;;;;;;5.95;1.88;;;25.80;99.90;;;;;;4944385;29;20120;-85
2022/06/28 08:08:27;;;;;;;5.65;2.30;;;25.90;99.90;;;;;;4943401;29;20079;-85
2022/06/28 08:10:53;;;;;;;9.60;2.53;;;26.00;99.90;;;;;;4942985;29;20036;-86
2022/06/28 08:13:19;;;;;;;15.95;2.72;;;26.00;99.90;;;;;;4927335;29;20069;-84
2022/06/28 08:15:45;;;;;;;7.28;2.58;;;26.10;99.90;;;;;;4943360;29;20032;-87
2022/06/28 08:18:13;;;;;;;5.45;2.17;;;26.20;99.90;;;;;;4944898;29;20028;-86
2022/06/28 08:20:39;;;;;;;4.82;2.80;;;26.30;99.90;;;;;;4945082;29;20039;-85
2022/06/28 08:23:07;;;;;;;8.70;2.75;;;26.40;99.90;;;;;;4944980;29;20028;-84
2022/06/28 08:25:33;;;;;;;4.22;2.20;;;26.60;99.90;;;;;;4934795;28;20036;-85
2022/06/28 08:27:59;;;;;;;6.97;2.67;;;26.60;99.90;;;;;;4958205;28;20083;-86
2022/06/28 08:30:26;;;;;;;5.03;2.35;;;26.70;99.90;;;;;;4965078;28;20055;-86
2022/06/28 08:32:52;;;;;;;14.82;3.15;;;26.70;99.90;;;;;;4961667;29;20034;-86
2022/06/28 08:35:19;;;;;;;6.28;2.45;;;26.80;99.90;;;;;;4970068;29;20054;-85
2022/06/28 08:37:45;;;;;;;9.10;2.58;;;26.70;99.90;;;;;;4943194;29;20062;-85
2022/06/28 08:40:12;;;;;;;7.00;2.50;;;26.70;99.90;;;;;;4959182;28;20032;-85
2022/06/28 08:42:40;;;;;;;8.43;2.83;;;26.50;99.90;;;;;;4955179;28;20099;-85
2022/06/28 08:45:06;;;;;;;7.53;2.53;;;26.60;99.90;;;;;;4939660;29;20040;-86
2022/06/28 08:47:37;;;;;;;5.40;2.50;;;26.50;99.90;;;;;;4930817;29;20038;-87
2022/06/28 08:50:13;;;;;;;7.43;2.20;;;26.60;99.90;;;;;;4931253;29;20441;-85
2022/06/28 08:52:41;;;;;;;6.97;2.80;;;26.60;99.90;;;;;;4928805;29;20036;-85
2022/06/28 08:55:09;;;;;;;4.95;3.20;;;26.70;99.90;;;;;;4927094;29;20497;-86
2022/06/28 08:57:35;;;;;;;5.85;2.78;;;26.80;99.90;;;;;;4930062;29;20036;-86
2022/06/28 09:00:05;;;;;;;4.70;2.47;;;26.90;99.90;;;;;;4928624;29;20048;-86
2022/06/28 09:02:32;;;;;;;4.00;2.42;;;27.00;99.90;;;;;;4932754;29;20035;-83
2022/06/28 09:05:00;;;;;;;6.43;2.67;;;27.10;99.90;;;;;;4944482;29;20031;-86
2022/06/28 09:07:26;;;;;;;6.20;3.08;;;27.30;99.90;;;;;;4944414;29;20083;-86
2022/06/28 09:09:52;;;;;;;8.88;2.88;;;27.40;99.90;;;;;;4943522;29;20027;-87
2022/06/28 09:12:19;;;;;;;5.80;2.92;;;27.50;99.90;;;;;;4943940;29;20051;-85
2022/06/28 09:14:46;;;;;;;9.20;3.20;;;27.50;99.90;;;;;;4943652;29;20036;-85
2022/06/28 09:17:20;;;;;;;5.57;2.90;;;27.50;99.90;;;;;;4944665;29;20444;-87
2022/06/28 09:19:47;;;;;;;6.70;2.77;;;27.70;99.90;;;;;;4942681;29;20111;-85
2022/06/28 09:22:35;;;;;;;4.30;2.88;;;27.90;99.90;;;;;;4942040;29;20270;-86
2022/06/28 09:25:06;;;;;;;10.63;2.75;;;28.20;99.90;;;;;;4943241;29;20032;-86
2022/06/28 09:27:40;;;;;;;3.67;2.30;;;28.60;99.90;;;;;;4943379;29;20099;-86
2022/06/28 09:30:10;;;;;;;7.55;2.75;;;28.70;99.80;;;;;;4945191;29;20473;-86
2022/06/28 09:32:37;;;;;;;10.05;3.53;;;28.80;99.70;;;;;;4948509;29;20102;-85
2022/06/28 09:35:04;;;;;;;4.65;2.47;;;28.70;99.80;;;;;;4948822;29;20023;-85
2022/06/28 09:37:56;;;;;;;2.75;2.28;;;28.70;99.40;;;;;;4934385;29;20035;-86
2022/06/28 09:40:25;;;;;;;5.18;2.70;;;28.70;99.10;;;;;;4926899;29;20064;-86
2022/06/28 09:43:12;;;;;;;3.70;2.10;;;28.90;99.30;;;;;;4927339;29;20055;-85
2022/06/28 09:45:41;;;;;;;2.85;2.38;;;29.10;99.10;;;;;;4923909;29;20107;-85
2022/06/28 09:48:08;;;;;;;6.65;2.60;;;29.40;98.70;;;;;;4924394;29;20115;-85
2022/06/28 09:50:36;;;;;;;6.80;2.80;;;29.60;98.30;;;;;;4929720;29;20031;-89
2022/06/28 09:53:03;;;;;;;9.05;2.33;;;29.80;98.40;;;;;;4948748;29;20134;-89
2022/06/28 09:55:31;;;;;;;3.15;2.45;;;30.40;97.50;;;;;;4958387;28;20035;-90
2022/06/28 09:57:58;;;;;;;4.40;2.15;;;30.80;96.90;;;;;;4957547;28;20024;-89
2022/06/28 10:00:25;;;;;;;6.75;2.17;;;31.00;96.40;;;;;;4949825;29;20293;-91
2022/06/28 10:02:55;;;;;;;6.95;4.30;;;31.80;95.60;;;;;;4948108;28;20019;-90
2022/06/28 10:05:22;;;;;;;6.65;3.33;;;32.30;94.90;;;;;;4935214;28;20044;-89
2022/06/28 10:07:47;;;;;;;4.38;2.15;;;33.70;93.60;;;;;;4923268;29;20079;-85
2022/06/28 10:10:14;;;;;;;6.90;1.85;;;34.10;92.30;;;;;;4926565;29;20448;-87
2022/06/28 10:15:31;;;;;;;4.50;1.83;;;34.80;90.50;;;;;;4936922;29;20071;-89
2022/06/28 10:18:01;;;;;;;3.58;1.88;;;34.40;90.30;;;;;;4942618;29;20031;-90
2022/06/28 10:20:32;;;;;;;2.88;1.63;;;34.60;89.80;;;;;;4946088;29;20028;-91
2022/06/28 10:23:21;;;;;;;5.03;1.70;;;35.40;88.00;;;;;;4958637;29;20095;-91
2022/06/28 10:26:09;;;;;;;6.53;1.77;;;36.10;85.50;;;;;;4951182;28;20020;-91
2022/06/28 10:28:48;;;;;;;2.83;1.77;;;36.90;83.10;;;;;;4946575;28;20107;-90
2022/06/28 10:31:23;;;;;;;2.65;1.67;;;37.50;80.60;;;;;;4941161;29;20040;-89
2022/06/28 10:33:53;;;;;;;2.95;1.63;;;38.50;78.40;;;;;;4942306;29;20027;-88
2022/06/28 10:36:21;;;;;;;4.68;1.90;;;39.00;77.00;;;;;;4957306;29;20061;-89
2022/06/28 10:39:09;;;;;;;6.15;2.08;;;40.30;73.90;;;;;;4964065;29;20390;-89
2022/06/28 10:41:43;;;;;;;2.83;1.70;;;41.30;71.50;;;;;;4954989;28;20059;-88
2022/06/28 10:44:19;;;;;;;2.88;1.48;;;41.80;68.30;;;;;;4943100;29;20028;-90
2022/06/28 10:47:03;;;;;;;4.60;1.77;;;41.70;68.20;;;;;;4944552;29;20288;-87
2022/06/28 10:49:52;;;;;;;3.70;2.00;;;41.80;66.30;;;;;;4945495;29;20035;-87
2022/06/28 10:52:32;;;;;;;4.30;1.70;;;41.50;66.10;;;;;;4933009;29;20038;-88
2022/06/28 10:54:58;;;;;;;5.13;1.63;;;42.00;65.00;;;;;;4933117;29;20062;-89
2022/06/28 10:57:45;;;;;;;4.25;1.70;;;42.20;64.40;;;;;;4927987;29;20052;-88
2022/06/28 11:00:23;;;;;;;3.95;1.40;;;42.30;63.90;;;;;;4934979;29;20063;-89
2022/06/28 11:02:51;;;;;;;4.28;1.52;;;42.10;63.10;;;;;;4935249;29;20032;-88
2022/06/28 11:05:19;;;;;;;4.05;1.45;;;41.70;63.60;;;;;;4933953;29;20031;-88
2022/06/28 11:08:02;;;;;;;4.15;1.25;;;42.40;62.90;;;;;;4932990;29;20043;-91
2022/06/28 11:10:29;;;;;;;4.68;1.52;;;42.70;62.10;;;;;;4946507;29;20032;-88
2022/06/28 11:13:18;;;;;;;8.93;1.77;;;42.30;61.70;;;;;;4945518;29;20051;-91
2022/06/28 11:15:44;;;;;;;6.85;1.50;;;42.20;62.00;;;;;;4940887;29;20016;-90
2022/06/28 11:18:18;;;;;;;2.58;1.40;;;42.20;61.70;;;;;;4942590;29;20079;-87
2022/06/28 11:20:45;;;;;;;5.72;1.50;;;41.80;62.20;;;;;;4944983;29;20017;-89
2022/06/28 11:23:29;;;;;;;8.52;1.60;;;41.60;61.90;;;;;;4945103;29;20091;-90
2022/06/28 11:29:00;;;;;;;3.83;1.50;;;41.10;62.00;;;;;;4940058;29;20055;-90
2022/06/28 11:31:29;;;;;;;2.63;1.80;;;40.80;63.10;;;;;;4939519;29;20042;-88
2022/06/28 11:33:55;;;;;;;3.05;1.63;;;41.10;62.70;;;;;;4931476;29;20554;-89
2022/06/28 11:36:25;;;;;;;3.63;1.80;;;41.10;62.30;;;;;;4933194;29;20039;-89
2022/06/28 11:38:51;;;;;;;5.88;1.95;;;41.60;61.20;;;;;;4935294;29;20067;-88
2022/06/28 11:41:28;;;;;;;2.65;1.25;;;42.10;60.10;;;;;;4935439;29;20084;-88
2022/06/28 11:43:59;;;;;;;3.17;1.58;;;42.30;60.10;;;;;;4927835;29;20067;-88
2022/06/28 11:46:27;;;;;;;3.90;1.40;;;42.40;60.30;;;;;;4943761;29;20024;-88
2022/06/28 11:48:53;;;;;;;4.47;1.50;;;41.90;60.60;;;;;;4943669;29;20051;-89
2022/06/28 11:51:29;;;;;;;1.75;1.20;;;41.20;61.10;;;;;;4943018;29;20025;-89
2022/06/28 11:53:55;;;;;;;3.47;1.50;;;41.10;60.70;;;;;;4942621;29;20032;-88
2022/06/28 11:56:21;;;;;;;4.63;1.50;;;41.00;60.70;;;;;;4935907;29;20043;-88
2022/06/28 11:58:47;;;;;;;3.20;1.50;;;41.30;60.70;;;;;;4933171;29;20036;-86
2022/06/28 12:01:15;;;;;;;6.28;2.13;;;41.40;60.70;;;;;;4928046;29;20063;-84
2022/06/28 12:03:43;;;;;;;1.80;1.15;;;41.20;60.90;;;;;;4931038;29;20488;-87
2022/06/28 12:06:27;;;;;;;3.03;1.08;;;41.30;60.70;;;;;;4928905;29;20055;-87
2022/06/28 12:08:58;;;;;;;5.68;1.55;;;41.40;60.40;;;;;;4926942;29;20039;-86
2022/06/28 12:11:53;;;;;;;2.78;1.73;;;41.60;60.20;;;;;;4926498;29;20039;-86
2022/06/28 12:14:34;;;;;;;3.08;1.33;;;41.90;59.60;;;;;;5216126;23;20039;-90
2022/06/28 12:17:29;;;;;;;4.63;1.42;;;42.10;59.30;;;;;;4944328;29;20032;-89
2022/06/28 12:20:09;;;;;;;3.70;1.17;;;42.40;58.70;;;;;;4960608;28;20034;-89
2022/06/28 12:22:46;;;;;;;4.78;1.55;;;42.60;58.30;;;;;;4945400;28;20020;-88
2022/06/28 12:25:21;;;;;;;3.25;1.60;;;42.70;58.00;;;;;;4942915;29;20016;-89
2022/06/28 12:28:42;;;;;;;8.32;1.50;;;43.20;57.90;;;;;;4956970;28;20035;-88
2022/06/28 12:31:51;;;;;;;2.75;1.20;;;43.20;57.40;;;;;;4934447;29;20024;-89
2022/06/28 12:40:39;;;;;;;10.32;1.90;;;43.60;56.80;;;;;;4916208;29;20064;-90
2022/06/28 12:43:21;;;;;;;4.38;1.30;;;43.20;57.30;;;;;;4878325;29;20233;-89
2022/06/28 12:45:47;;;;;;;3.22;1.00;;;43.20;56.80;;;;;;4903115;29;20136;-89
2022/06/28 12:48:12;;;;;;;9.80;1.45;;;42.40;57.20;;;;;;4924726;29;20032;-90
2022/06/28 12:50:38;;;;;;;4.00;1.48;;;42.60;57.30;;;;;;4927802;29;20039;-88
2022/06/28 12:53:04;;;;;;;3.58;1.30;;;43.00;56.40;;;;;;4921005;29;20017;-89
2022/06/28 12:55:30;;;;;;;5.15;1.38;;;44.60;55.60;;;;;;4927981;29;20035;-89
2022/06/28 13:01:03;;;;;;;6.57;1.40;;;45.50;54.20;;;;;;4906214;29;20116;-90
2022/06/28 13:03:38;;;;;;;4.25;1.40;;;46.60;53.20;;;;;;4914112;29;20068;-89
2022/06/28 13:06:19;;;;;;;3.28;1.42;;;46.90;52.40;;;;;;4910842;29;20513;-89
2022/06/28 13:08:55;;;;;;;3.42;1.33;;;46.10;53.00;;;;;;4910768;29;20083;-89
2022/06/28 13:11:43;;;;;;;3.53;1.38;;;46.30;52.70;;;;;;4896129;29;20102;-90
2022/06/28 13:18:26;;;;;;;;;;;;;;;;;;;;;
2022/06/28 13:25:22;;;;;;;5.75;1.35;;;45.50;52.60;;;;;;4913538;29;20048;-89
2022/06/28 13:28:21;;;;;;;4.35;1.50;;;45.70;52.40;;;;;;4914266;29;20056;-89
2022/06/28 13:30:47;;;;;;;3.20;1.15;;;45.30;52.80;;;;;;4922271;29;20045;-90
2022/06/28 13:33:13;;;;;;;2.53;1.23;;;45.20;52.50;;;;;;4928790;29;20079;-90
2022/06/28 13:36:03;;;;;;;4.90;1.40;;;45.60;52.00;;;;;;4923112;29;20032;-90
2022/06/28 13:43:32;;;;;;;3.10;1.23;;;45.40;51.80;;;;;;4878021;29;20037;-89